createdAt,value
2022-11-12T00:01:16.843Z,14.75
2022-11-12T00:04:02.686Z,15.55
2022-11-12T00:06:48.830Z,14.13
2022-11-12T00:09:34.693Z,13.93
2022-11-12T00:12:20.412Z,13.82
2022-11-12T00:15:06.937Z,14.50
2022-11-12T00:17:53.432Z,13.32
2022-11-12T00:20:39.546Z,14.07
2022-11-12T00:23:25.586Z,15.68
2022-11-12T00:26:11.617Z,14.40
2022-11-12T00:28:57.520Z,15.18
2022-11-12T00:31:43.737Z,15.68
2022-11-12T00:34:29.853Z,15.45
2022-11-12T00:37:16.813Z,14.75
2022-11-12T00:40:02.962Z,16.70
2022-11-12T00:42:52.114Z,15.23
2022-11-12T00:45:37.821Z,15.20
2022-11-12T00:48:24.113Z,13.88
2022-11-12T00:51:10.150Z,14.52
2022-11-12T00:53:56.358Z,14.60
2022-11-12T00:56:42.479Z,16.15
2022-11-12T00:59:28.429Z,16.55
2022-11-12T01:02:14.630Z,15.80
2022-11-12T01:05:00.565Z,14.63
2022-11-12T01:07:49.365Z,15.95
2022-11-12T01:10:39.391Z,14.77
2022-11-12T01:13:25.262Z,13.88
2022-11-12T01:16:17.643Z,14.57
2022-11-12T01:19:05.882Z,15.32
2022-11-12T01:21:51.820Z,15.35
2022-11-12T01:24:37.854Z,15.20
2022-11-12T01:27:23.590Z,15.30
2022-11-12T01:30:10.411Z,15.38
2022-11-12T01:32:56.771Z,15.07
2022-11-12T01:35:42.819Z,16.20
2022-11-12T01:38:28.983Z,15.95
2022-11-12T01:41:24.817Z,18.20
2022-11-12T01:44:26.891Z,17.65
2022-11-12T01:47:31.821Z,17.20
2022-11-12T01:50:27.303Z,19.95
2022-11-12T01:53:14.018Z,19.23
2022-11-12T01:56:02.781Z,17.15
2022-11-12T01:58:52.442Z,19.40
2022-11-12T02:01:39.130Z,17.25
2022-11-12T02:04:26.720Z,17.85
2022-11-12T02:07:13.296Z,16.08
2022-11-12T02:10:02.132Z,17.15
2022-11-12T02:13:08.523Z,15.65
2022-11-12T02:15:55.460Z,15.93
2022-11-12T02:18:41.260Z,15.60
2022-11-12T02:21:27.560Z,15.55
2022-11-12T02:24:13.656Z,16.60
2022-11-12T02:27:00.129Z,14.27
2022-11-12T02:29:46.496Z,14.95
2022-11-12T02:32:33.370Z,14.10
2022-11-12T02:35:19.168Z,15.20
2022-11-12T02:38:06.600Z,14.07
2022-11-12T02:40:53.195Z,15.38
2022-11-12T02:43:39.620Z,14.07
2022-11-12T02:46:25.671Z,15.40
2022-11-12T02:49:11.706Z,14.70
2022-11-12T02:51:57.491Z,16.38
2022-11-12T02:54:43.597Z,15.13
2022-11-12T02:57:30.393Z,14.55
2022-11-12T03:00:18.327Z,13.90
2022-11-12T03:03:04.649Z,13.32
2022-11-12T03:05:59.947Z,14.50
2022-11-12T03:08:46.009Z,15.50
2022-11-12T03:11:32.061Z,14.15
2022-11-12T03:14:18.172Z,15.05
2022-11-12T03:17:04.281Z,13.25
2022-11-12T03:19:50.138Z,14.85
2022-11-12T03:22:36.277Z,13.77
2022-11-12T03:25:22.285Z,14.45
2022-11-12T03:28:10.572Z,15.30
2022-11-12T03:31:00.116Z,14.13
2022-11-12T03:33:46.367Z,13.98
2022-11-12T03:36:32.709Z,13.60
2022-11-12T03:39:18.563Z,14.20
2022-11-12T03:42:04.850Z,15.50
2022-11-12T03:44:50.676Z,14.23
2022-11-12T03:47:36.579Z,16.98
2022-11-12T03:50:26.243Z,16.08
2022-11-12T03:53:12.966Z,19.42
2022-11-12T03:55:59.126Z,20.52
2022-11-12T03:58:45.073Z,20.17
2022-11-12T04:01:31.703Z,19.85
2022-11-12T04:04:18.000Z,20.35
2022-11-12T04:07:22.341Z,20.40
2022-11-12T04:10:08.637Z,19.00
2022-11-12T04:13:13.553Z,20.63
2022-11-12T04:16:31.220Z,18.27
2022-11-12T04:19:36.171Z,21.92
2022-11-12T04:22:22.249Z,20.88
2022-11-12T04:25:26.906Z,17.50
2022-11-12T04:28:13.028Z,19.27
2022-11-12T04:30:58.963Z,20.88
2022-11-12T04:33:44.744Z,20.77
2022-11-12T04:36:30.580Z,19.45
2022-11-12T04:39:16.737Z,18.45
2022-11-12T04:42:21.530Z,19.10
2022-11-12T04:45:10.136Z,18.85
2022-11-12T04:47:55.963Z,17.13
2022-11-12T04:50:44.662Z,19.20
2022-11-12T04:53:31.329Z,17.45
2022-11-12T04:56:17.381Z,21.42
2022-11-12T04:59:03.333Z,17.88
2022-11-12T05:01:49.479Z,20.02
2022-11-12T05:04:35.406Z,18.63
2022-11-12T05:07:21.588Z,19.67
2022-11-12T05:10:08.753Z,19.05
2022-11-12T05:12:55.118Z,16.40
2022-11-12T05:15:43.223Z,18.98
2022-11-12T05:18:29.577Z,17.88
2022-11-12T05:21:36.963Z,18.00
2022-11-12T05:24:41.105Z,17.23
2022-11-12T05:27:28.082Z,16.98
2022-11-12T05:30:14.553Z,19.55
2022-11-12T05:33:01.079Z,19.25
2022-11-12T05:35:47.138Z,15.90
2022-11-12T05:38:32.993Z,18.63
2022-11-12T05:41:20.386Z,18.33
2022-11-12T05:44:07.021Z,18.55
2022-11-12T05:46:53.415Z,18.05
2022-11-12T05:49:40.460Z,17.48
2022-11-12T05:52:26.662Z,18.73
2022-11-12T05:55:12.720Z,19.00
2022-11-12T05:57:59.019Z,17.98
2022-11-12T06:00:45.127Z,17.50
2022-11-12T06:03:31.520Z,18.45
2022-11-12T06:06:17.917Z,19.17
2022-11-12T06:09:05.433Z,19.17
2022-11-12T06:11:51.163Z,19.02
2022-11-12T06:14:37.741Z,18.35
2022-11-12T06:17:23.651Z,17.83
2022-11-12T06:20:10.071Z,19.65
2022-11-12T06:22:57.333Z,19.38
2022-11-12T06:25:43.433Z,18.90
2022-11-12T06:28:29.854Z,20.08
2022-11-12T06:31:17.129Z,19.05
2022-11-12T06:34:03.216Z,18.40
2022-11-12T06:36:49.280Z,17.33
2022-11-12T06:39:35.340Z,18.30
2022-11-12T06:42:21.749Z,18.83
2022-11-12T06:45:08.251Z,19.50
2022-11-12T06:47:58.444Z,18.52
2022-11-12T06:50:44.740Z,16.90
2022-11-12T06:53:30.897Z,18.70
2022-11-12T06:56:16.971Z,19.15
2022-11-12T06:59:03.205Z,20.05
2022-11-12T07:01:49.526Z,18.15
2022-11-12T07:04:35.736Z,17.95
2022-11-12T07:07:21.871Z,18.98
2022-11-12T07:10:08.931Z,19.48
2022-11-12T07:12:55.095Z,19.45
2022-11-12T07:15:40.981Z,19.33
2022-11-12T07:18:28.217Z,19.63
2022-11-12T07:21:17.798Z,19.13
2022-11-12T07:24:03.584Z,19.20
2022-11-12T07:26:49.337Z,17.05
2022-11-12T07:29:47.639Z,20.23
2022-11-12T07:32:38.642Z,19.27
2022-11-12T07:35:28.141Z,19.38
2022-11-12T07:38:14.153Z,18.42
2022-11-12T07:41:07.259Z,18.30
2022-11-12T07:43:54.094Z,19.58
2022-11-12T07:46:40.200Z,19.67
2022-11-12T07:49:26.378Z,20.45
2022-11-12T07:52:12.463Z,20.77
2022-11-12T07:54:58.514Z,20.75
2022-11-12T07:57:44.666Z,21.63
2022-11-12T08:00:31.391Z,20.70
2022-11-12T08:03:18.221Z,20.17
2022-11-12T08:06:04.856Z,21.40
2022-11-12T08:08:58.139Z,18.98
2022-11-12T08:11:44.028Z,19.10
2022-11-12T08:14:30.247Z,19.40
2022-11-12T08:17:16.461Z,19.83
2022-11-12T08:20:02.314Z,19.23
2022-11-12T08:22:49.567Z,19.83
2022-11-12T08:25:36.528Z,19.38
2022-11-12T08:28:22.446Z,17.88
2022-11-12T08:31:12.464Z,20.08
2022-11-12T08:33:58.807Z,18.52
2022-11-12T08:36:45.241Z,17.92
2022-11-12T08:39:31.582Z,17.85
2022-11-12T08:42:17.583Z,19.20
2022-11-12T08:45:03.605Z,17.88
2022-11-12T08:47:49.666Z,18.83
2022-11-12T08:50:36.447Z,18.33
2022-11-12T08:53:24.100Z,18.00
2022-11-12T08:56:10.232Z,18.63
2022-11-12T08:58:56.203Z,18.73
2022-11-12T09:01:42.210Z,20.30
2022-11-12T09:04:28.685Z,18.58
2022-11-12T09:07:43.279Z,19.38
2022-11-12T09:10:20.360Z,19.27
2022-11-12T09:13:06.886Z,19.35
2022-11-12T09:15:53.044Z,19.90
2022-11-12T09:18:38.874Z,19.35
2022-11-12T09:21:25.397Z,21.05
2022-11-12T09:24:11.508Z,18.65
2022-11-12T09:26:57.423Z,19.27
2022-11-12T09:29:43.415Z,18.38
2022-11-12T09:32:30.267Z,19.95
2022-11-12T09:35:16.375Z,18.17
2022-11-12T09:38:02.254Z,18.90
2022-11-12T09:40:59.072Z,18.00
2022-11-12T09:43:51.570Z,18.40
2022-11-12T09:46:47.348Z,19.45
2022-11-12T09:49:50.316Z,17.80
2022-11-12T09:52:38.269Z,18.77
2022-11-12T09:55:32.350Z,18.30
2022-11-12T09:58:19.533Z,10.90
2022-11-12T10:01:37.936Z,18.42
2022-11-12T10:04:58.796Z,16.92
2022-11-12T10:07:56.871Z,16.23
2022-11-12T10:11:27.085Z,17.00
2022-11-12T10:15:21.423Z,17.88
2022-11-12T10:18:34.836Z,16.25
2022-11-12T10:21:36.062Z,15.93
2022-11-12T10:24:24.301Z,16.90
2022-11-12T10:27:20.383Z,15.70
2022-11-12T10:30:15.063Z,15.23
2022-11-12T10:33:04.194Z,15.30
2022-11-12T10:35:52.721Z,14.90
2022-11-12T10:38:39.183Z,15.45
2022-11-12T10:41:28.480Z,15.10
2022-11-12T10:44:15.141Z,15.70
2022-11-12T10:47:22.054Z,15.13
2022-11-12T10:50:32.166Z,14.55
2022-11-12T10:53:37.655Z,15.98
2022-11-12T10:56:31.848Z,14.20
2022-11-12T10:59:20.000Z,15.23
2022-11-12T11:02:17.101Z,15.32
2022-11-12T11:05:35.640Z,14.40
2022-11-12T11:08:42.700Z,14.88
2022-11-12T11:11:30.248Z,14.90
2022-11-12T11:14:24.504Z,13.80
2022-11-12T11:17:17.485Z,14.55
2022-11-12T11:20:25.037Z,15.15
2022-11-12T11:23:17.909Z,15.13
2022-11-12T11:26:20.416Z,14.95
2022-11-12T11:29:26.977Z,15.23
2022-11-12T11:32:37.412Z,13.93
2022-11-12T11:36:01.667Z,15.10
2022-11-12T11:39:41.932Z,13.90
2022-11-12T11:42:52.316Z,12.52
2022-11-12T11:46:23.000Z,13.25
2022-11-12T11:49:48.492Z,14.18
2022-11-12T11:52:46.196Z,14.25
2022-11-12T11:55:49.228Z,13.00
2022-11-12T11:58:59.937Z,13.80
2022-11-12T12:01:48.778Z,14.15
2022-11-12T12:04:42.950Z,13.45
2022-11-12T12:07:54.590Z,13.27
2022-11-12T12:11:10.469Z,12.05
2022-11-12T12:14:05.047Z,11.45
2022-11-12T12:17:13.545Z,12.48
2022-11-12T12:20:18.301Z,12.60
2022-11-12T12:23:13.381Z,14.93
2022-11-12T12:26:02.916Z,13.70
2022-11-12T12:29:02.016Z,12.60
2022-11-12T12:32:02.640Z,12.48
2022-11-12T12:34:56.316Z,12.40
2022-11-12T12:37:48.214Z,11.93
2022-11-12T12:40:54.279Z,13.15
2022-11-12T12:43:52.727Z,11.13
2022-11-12T12:46:50.026Z,10.93
2022-11-12T12:49:37.361Z,8.98
2022-11-12T12:52:23.226Z,9.35
2022-11-12T12:55:36.559Z,9.25
2022-11-12T12:58:31.740Z,8.60
2022-11-12T13:01:21.062Z,8.30
2022-11-12T13:04:08.956Z,8.88
2022-11-12T13:06:55.554Z,8.57
2022-11-12T13:09:42.021Z,8.07
2022-11-12T13:13:01.873Z,8.70
2022-11-12T13:15:48.787Z,8.30
2022-11-12T13:18:40.679Z,7.32
2022-11-12T13:21:27.029Z,8.75
2022-11-12T13:24:14.304Z,7.28
2022-11-12T13:27:00.996Z,8.13
2022-11-12T13:29:48.081Z,7.35
2022-11-12T13:32:45.951Z,7.70
2022-11-12T13:35:36.460Z,7.47
2022-11-12T13:38:23.012Z,7.38
2022-11-12T13:41:40.143Z,9.80
2022-11-12T13:44:28.127Z,8.10
2022-11-12T13:47:21.569Z,6.57
2022-11-12T13:50:10.745Z,7.18
2022-11-12T13:52:58.507Z,6.95
2022-11-12T13:55:51.970Z,6.30
2022-11-12T13:58:40.029Z,6.47
2022-11-12T14:01:33.698Z,7.28
2022-11-12T14:04:23.976Z,6.72
2022-11-12T14:07:27.435Z,6.72
2022-11-12T14:10:22.632Z,6.93
2022-11-12T14:13:23.681Z,7.80
2022-11-12T14:16:51.192Z,6.93
2022-11-12T14:20:03.040Z,6.57
2022-11-12T14:22:54.951Z,7.22
2022-11-12T14:25:54.611Z,6.00
2022-11-12T14:28:40.557Z,6.68
2022-11-12T14:31:26.582Z,7.85
2022-11-12T14:34:27.063Z,7.30
2022-11-12T14:40:17.183Z,6.22
2022-11-12T14:43:03.795Z,8.63
2022-11-12T14:45:51.735Z,8.25
2022-11-12T14:48:49.842Z,9.18
2022-11-12T14:51:44.303Z,10.50
2022-11-12T14:54:34.405Z,8.18
2022-11-12T14:57:29.414Z,7.87
2022-11-12T15:00:37.740Z,8.40
2022-11-12T15:03:30.862Z,9.80
2022-11-12T15:06:28.006Z,9.35
2022-11-12T15:09:18.771Z,9.55
2022-11-12T15:12:09.006Z,9.93
2022-11-12T15:15:07.076Z,8.87
2022-11-12T15:18:02.628Z,9.82
2022-11-12T15:21:25.889Z,10.30
2022-11-12T15:24:11.966Z,10.85
2022-11-12T15:27:00.827Z,11.25
2022-11-12T15:29:46.612Z,10.95
2022-11-12T15:32:34.165Z,11.45
2022-11-12T15:35:47.104Z,11.35
2022-11-12T15:38:38.485Z,10.60
2022-11-12T15:41:29.874Z,10.63
2022-11-12T15:44:16.041Z,9.90
2022-11-12T15:47:03.116Z,12.40
2022-11-12T15:49:54.267Z,11.65
2022-11-12T15:52:41.524Z,12.70
2022-11-12T15:55:27.444Z,10.75
2022-11-12T15:58:27.026Z,14.38
2022-11-12T16:01:13.479Z,13.45
2022-11-12T16:03:59.487Z,12.07
2022-11-12T16:06:45.842Z,13.60
2022-11-12T16:09:32.591Z,13.15
2022-11-12T16:12:19.077Z,15.70
2022-11-12T16:15:27.739Z,15.90
2022-11-12T16:18:13.657Z,16.65
2022-11-12T16:20:59.467Z,16.05
2022-11-12T16:23:45.409Z,13.23
2022-11-12T16:26:32.882Z,15.90
2022-11-12T16:29:19.079Z,15.27
2022-11-12T16:32:05.221Z,22.73
2022-11-12T16:34:51.164Z,17.67
2022-11-12T16:37:40.598Z,15.57
2022-11-12T16:40:28.796Z,17.35
2022-11-12T16:43:14.885Z,16.40
2022-11-12T16:46:01.068Z,18.20
2022-11-12T16:48:47.042Z,20.88
2022-11-12T16:51:33.180Z,21.13
2022-11-12T16:54:19.208Z,23.98
2022-11-12T16:57:06.438Z,22.00
2022-11-12T16:59:52.714Z,19.42
2022-11-12T17:02:43.774Z,19.50
2022-11-12T17:05:32.202Z,19.08
2022-11-12T17:08:18.494Z,19.90
2022-11-12T17:11:09.654Z,17.50
2022-11-12T17:16:42.212Z,21.40
2022-11-12T17:19:28.216Z,18.65
2022-11-12T17:22:14.307Z,17.58
2022-11-12T17:25:00.569Z,18.67
2022-11-12T17:27:46.664Z,17.85
2022-11-12T17:30:32.696Z,17.73
2022-11-12T17:33:18.546Z,20.45
2022-11-12T17:36:06.214Z,23.08
2022-11-12T17:38:59.385Z,36.55
2022-11-12T17:41:49.018Z,31.40
2022-11-12T17:44:35.222Z,20.88
2022-11-12T17:47:21.995Z,19.67
2022-11-12T17:50:08.651Z,19.20
2022-11-12T17:52:57.537Z,19.65
2022-11-12T17:55:44.308Z,18.77
2022-11-12T17:58:31.761Z,20.38
2022-11-12T18:01:24.187Z,21.55
2022-11-12T18:04:13.129Z,20.70
2022-11-12T18:06:59.242Z,21.50
2022-11-12T18:09:45.289Z,19.80
2022-11-12T18:12:31.968Z,23.10
2022-11-12T18:15:18.322Z,22.88
2022-11-12T18:18:04.597Z,19.92
2022-11-12T18:20:51.025Z,18.95
2022-11-12T18:23:39.021Z,18.70
2022-11-12T18:26:25.105Z,25.83
2022-11-12T18:29:12.532Z,28.48
2022-11-12T18:31:59.252Z,30.77
2022-11-12T18:34:46.233Z,26.70
2022-11-12T18:37:32.446Z,26.98
2022-11-12T18:40:19.295Z,56.05
2022-11-12T18:43:05.492Z,53.03
2022-11-12T18:46:01.971Z,39.40
2022-11-12T18:48:48.144Z,36.95
2022-11-12T18:51:34.289Z,25.67
2022-11-12T18:54:20.404Z,20.95
2022-11-12T18:57:06.515Z,20.05
2022-11-12T18:59:54.983Z,21.33
2022-11-12T19:02:41.460Z,20.33
2022-11-12T19:05:28.208Z,21.27
2022-11-12T19:08:15.038Z,21.63
2022-11-12T19:11:04.754Z,21.73
2022-11-12T19:13:52.951Z,18.23
2022-11-12T19:16:43.087Z,18.50
2022-11-12T19:19:29.350Z,17.95
2022-11-12T19:22:15.167Z,21.30
2022-11-12T19:25:04.229Z,19.00
2022-11-12T19:27:50.412Z,22.75
2022-11-12T19:30:36.824Z,22.13
2022-11-12T19:33:23.663Z,41.50
2022-11-12T19:36:14.595Z,25.90
2022-11-12T19:39:02.699Z,25.35
2022-11-12T19:41:48.598Z,29.95
2022-11-12T19:44:34.716Z,25.17
2022-11-12T19:47:20.996Z,22.55
2022-11-12T19:50:07.607Z,21.55
2022-11-12T19:52:54.844Z,28.40
2022-11-12T19:55:41.339Z,23.77
2022-11-12T19:58:28.233Z,26.17
2022-11-12T20:01:17.711Z,27.70
2022-11-12T20:04:04.441Z,25.50
2022-11-12T20:06:50.696Z,34.35
2022-11-12T20:09:37.086Z,32.08
2022-11-12T20:12:25.371Z,28.05
2022-11-12T20:15:12.137Z,35.25
2022-11-12T20:17:58.375Z,39.65
2022-11-12T20:20:56.199Z,93.65
2022-11-12T20:23:43.109Z,30.42
2022-11-12T20:26:29.613Z,33.20
2022-11-12T20:29:17.344Z,26.50
2022-11-12T20:32:03.661Z,29.65
2022-11-12T20:34:49.931Z,32.17
2022-11-12T20:37:36.421Z,49.65
2022-11-12T20:40:23.435Z,45.30
2022-11-12T20:43:09.734Z,43.47
2022-11-12T20:45:56.228Z,48.75
2022-11-12T20:48:43.913Z,29.42
2022-11-12T20:51:30.417Z,27.25
2022-11-12T20:54:16.844Z,27.45
2022-11-12T20:57:03.410Z,25.08
2022-11-12T20:59:51.537Z,25.33
2022-11-12T21:02:38.320Z,23.70
2022-11-12T21:05:24.947Z,25.42
2022-11-12T21:08:11.606Z,26.63
2022-11-12T21:10:59.421Z,26.63
2022-11-12T21:13:45.713Z,24.00
2022-11-12T21:16:32.471Z,22.25
2022-11-12T21:19:18.811Z,23.88
2022-11-12T21:22:04.782Z,25.40
2022-11-12T21:24:50.859Z,27.60
2022-11-12T21:27:37.203Z,22.30
2022-11-12T21:30:23.249Z,24.27
2022-11-12T21:33:09.304Z,25.77
2022-11-12T21:35:55.625Z,27.17
2022-11-12T21:38:41.765Z,25.77
2022-11-12T21:41:31.206Z,24.77
2022-11-12T21:44:17.651Z,24.00
2022-11-12T21:47:04.350Z,26.38
2022-11-12T21:49:50.425Z,26.15
2022-11-12T21:52:36.901Z,28.25
2022-11-12T21:55:23.341Z,26.90
2022-11-12T21:58:09.647Z,26.15
2022-11-12T22:00:56.152Z,29.92
2022-11-12T22:03:42.580Z,25.02
2022-11-12T22:06:29.992Z,26.75
2022-11-12T22:09:16.286Z,27.13
2022-11-12T22:12:02.402Z,24.75
2022-11-12T22:14:48.348Z,26.48
2022-11-12T22:17:34.830Z,26.00
2022-11-12T22:20:21.340Z,23.85
2022-11-12T22:23:07.661Z,30.85
2022-11-12T22:25:58.257Z,25.63
2022-11-12T22:28:44.998Z,24.38
2022-11-12T22:31:33.061Z,32.05
2022-11-12T22:34:19.108Z,25.17
2022-11-12T22:37:05.734Z,29.83
2022-11-12T22:39:52.058Z,38.92
2022-11-12T22:42:38.930Z,35.88
2022-11-12T22:45:25.565Z,30.65
2022-11-12T22:48:11.447Z,25.63
2022-11-12T22:51:06.385Z,25.27
2022-11-12T22:53:57.705Z,26.90
2022-11-12T22:56:44.281Z,26.75
2022-11-12T22:59:30.601Z,25.25
2022-11-12T23:02:16.848Z,26.80
2022-11-12T23:05:03.462Z,26.00
2022-11-12T23:07:49.649Z,25.30
2022-11-12T23:10:35.986Z,26.90
2022-11-12T23:13:23.368Z,25.27
2022-11-12T23:16:15.653Z,26.42
2022-11-12T23:19:02.365Z,27.23
2022-11-12T23:21:48.938Z,26.77
2022-11-12T23:24:35.171Z,27.95
2022-11-12T23:27:21.426Z,27.70
2022-11-12T23:30:08.387Z,24.88
2022-11-12T23:32:54.522Z,26.63
2022-11-12T23:35:40.529Z,26.33
2022-11-12T23:38:27.139Z,27.95
2022-11-12T23:41:17.264Z,26.23
2022-11-12T23:44:03.692Z,27.88
2022-11-12T23:46:49.719Z,25.98
2022-11-12T23:49:35.756Z,27.23
2022-11-12T23:52:22.157Z,26.27
2022-11-12T23:55:09.108Z,25.90
2022-11-12T23:57:55.365Z,23.88
